Time;durP1;ratioP1;P1;durP2;ratioP2;P2;SDS_P1;SDS_P2;PMS_P1;PMS_P2;Temp;Humidity;BMP_temperature;BMP_pressure;BME280_temperature;BME280_humidity;BME280_pressure;Samples;Min_cycle;Max_cycle;Signal;HPM_P1;HPM_P2
2023/12/24 00:01:40;;;;;;;4.10;2.00;;;10.70;99.90;;;;;;6279708;22;20163;-81
2023/12/24 00:04:06;;;;;;;4.63;2.40;;;10.70;99.90;;;;;;6278681;22;20145;-82
2023/12/24 00:06:32;;;;;;;6.30;1.80;;;10.70;99.90;;;;;;6279352;22;20831;-83
2023/12/24 00:08:57;;;;;;;6.83;1.87;;;10.70;99.90;;;;;;6280190;22;20165;-82
2023/12/24 00:11:23;;;;;;;4.23;1.97;;;10.70;99.90;;;;;;6276848;22;20386;-83
2023/12/24 00:13:48;;;;;;;6.23;2.63;;;10.70;99.90;;;;;;6278572;22;20190;-83
2023/12/24 00:16:14;;;;;;;9.10;1.93;;;10.70;99.90;;;;;;6281172;22;20155;-83
2023/12/24 00:18:40;;;;;;;3.73;1.60;;;10.70;1.00;;;;;;6278531;22;20227;-83
2023/12/24 00:21:05;;;;;;;3.47;1.47;;;10.70;1.00;;;;;;6253852;22;20204;-82
2023/12/24 00:23:30;;;;;;;1.80;1.43;;;10.70;1.00;;;;;;6280313;22;20478;-83
2023/12/24 00:25:56;;;;;;;3.40;1.80;;;10.60;1.00;;;;;;6254143;22;20157;-83
2023/12/24 00:28:21;;;;;;;3.40;1.47;;;10.60;1.00;;;;;;6281490;22;20173;-84
2023/12/24 00:30:47;;;;;;;3.47;1.40;;;10.60;1.00;;;;;;6279310;22;20148;-83
2023/12/24 00:33:12;;;;;;;5.37;1.50;;;10.60;1.00;;;;;;6253436;22;20187;-84
2023/12/24 00:35:38;;;;;;;1.93;1.30;;;10.50;1.00;;;;;;6281401;22;20153;-84
2023/12/24 00:38:04;;;;;;;3.03;1.50;;;10.50;1.00;;;;;;6256272;22;20204;-85
2023/12/24 00:40:30;;;;;;;2.20;1.50;;;10.50;1.00;;;;;;6262933;22;20569;-85
2023/12/24 00:42:55;;;;;;;3.80;2.37;;;10.50;1.00;;;;;;6287573;22;20149;-85
2023/12/24 00:45:21;;;;;;;5.23;1.47;;;10.50;1.00;;;;;;6286956;22;20433;-85
2023/12/24 00:47:47;;;;;;;4.23;1.30;;;10.50;1.00;;;;;;6286408;22;20624;-86
2023/12/24 00:50:13;;;;;;;5.83;1.23;;;10.50;1.00;;;;;;6283402;22;20161;-84
2023/12/24 00:52:38;;;;;;;2.97;1.23;;;10.50;1.00;;;;;;6282751;22;20181;-84
2023/12/24 00:55:05;;;;;;;7.03;1.43;;;10.60;1.00;;;;;;6283988;22;20429;-84
2023/12/24 00:57:30;;;;;;;4.50;1.80;;;10.60;1.00;;;;;;6281836;22;20172;-85
2023/12/24 00:59:56;;;;;;;3.47;1.23;;;10.60;99.90;;;;;;6278353;22;20834;-85
2023/12/24 01:02:21;;;;;;;3.20;1.10;;;10.60;99.90;;;;;;6251266;22;20161;-85
2023/12/24 01:04:47;;;;;;;3.53;1.57;;;10.60;99.90;;;;;;6281745;22;20156;-84
2023/12/24 01:07:12;;;;;;;3.20;1.60;;;10.60;99.90;;;;;;6283468;22;20628;-85
2023/12/24 01:09:39;;;;;;;3.43;1.30;;;10.60;1.00;;;;;;6287844;22;20153;-85
2023/12/24 01:12:05;;;;;;;2.10;1.20;;;10.60;1.00;;;;;;6282265;22;20227;-84
2023/12/24 01:14:31;;;;;;;3.93;1.60;;;10.60;1.00;;;;;;6285404;22;20380;-84
2023/12/24 01:16:56;;;;;;;5.30;1.60;;;10.60;1.00;;;;;;6286044;22;20376;-85
2023/12/24 01:19:22;;;;;;;3.30;1.30;;;10.60;1.00;;;;;;6286643;22;20533;-83
2023/12/24 01:21:48;;;;;;;2.20;1.30;;;10.60;1.00;;;;;;6286847;22;20208;-84
2023/12/24 01:24:14;;;;;;;3.73;1.30;;;10.60;1.00;;;;;;6282921;22;20207;-84
2023/12/24 01:26:40;;;;;;;2.83;1.10;;;10.60;1.00;;;;;;6251326;22;20475;-84
2023/12/24 01:29:05;;;;;;;5.93;1.43;;;10.60;1.00;;;;;;6275215;22;20375;-84
2023/12/24 01:31:31;;;;;;;3.60;1.60;;;10.50;1.00;;;;;;6279195;22;20153;-84
2023/12/24 01:33:56;;;;;;;5.17;1.77;;;10.50;1.00;;;;;;6278468;22;20181;-84
2023/12/24 01:36:22;;;;;;;4.27;1.30;;;10.50;1.00;;;;;;6276982;22;20683;-84
2023/12/24 01:38:48;;;;;;;3.60;1.57;;;10.50;1.00;;;;;;6278235;22;20215;-85
2023/12/24 01:41:14;;;;;;;3.40;1.60;;;10.50;1.00;;;;;;6279015;22;20145;-84
2023/12/24 01:43:43;;;;;;;4.23;1.23;;;10.60;1.00;;;;;;6251406;22;20387;-84
2023/12/24 01:46:11;;;;;;;1.57;1.20;;;10.60;1.00;;;;;;6276722;22;20233;-84
2023/12/24 01:48:38;;;;;;;2.47;1.10;;;10.60;1.00;;;;;;6278762;22;20391;-83
2023/12/24 01:51:03;;;;;;;2.80;1.00;;;10.60;1.00;;;;;;6277660;22;20376;-83
2023/12/24 01:53:31;;;;;;;1.60;1.03;;;10.60;1.00;;;;;;6275813;22;20802;-84
2023/12/24 01:55:57;;;;;;;2.90;1.10;;;10.60;1.00;;;;;;6278485;22;20149;-84
2023/12/24 01:58:24;;;;;;;2.90;1.10;;;10.60;1.00;;;;;;6278191;22;20783;-85
2023/12/24 02:00:49;;;;;;;2.20;1.00;;;10.60;1.00;;;;;;6278826;22;20375;-84
2023/12/24 02:03:16;;;;;;;2.80;1.10;;;10.60;1.00;;;;;;6249797;22;20390;-84
2023/12/24 02:05:45;;;;;;;2.00;0.90;;;10.50;1.00;;;;;;6278312;22;20157;-84
2023/12/24 02:08:14;;;;;;;2.77;0.97;;;10.50;1.00;;;;;;6251213;22;20728;-84
2023/12/24 02:10:40;;;;;;;1.73;0.73;;;10.50;1.00;;;;;;6283007;22;20724;-86
2023/12/24 02:13:06;;;;;;;2.13;0.90;;;10.40;1.00;;;;;;6288067;22;20419;-85
2023/12/24 02:15:32;;;;;;;1.50;0.97;;;10.40;1.00;;;;;;6260968;22;20398;-86
2023/12/24 02:17:59;;;;;;;1.60;1.13;;;10.30;1.00;;;;;;6288260;22;20164;-86
2023/12/24 02:20:25;;;;;;;2.57;1.10;;;10.30;1.00;;;;;;6287513;22;20152;-84
2023/12/24 02:22:51;;;;;;;3.10;1.10;;;10.30;1.00;;;;;;6257556;22;20383;-84
2023/12/24 02:25:17;;;;;;;1.50;1.20;;;10.30;1.00;;;;;;6288246;22;20406;-85
2023/12/24 02:27:47;;;;;;;1.20;0.90;;;10.30;1.00;;;;;;6287864;22;20490;-84
2023/12/24 02:30:20;;;;;;;1.53;0.80;;;10.30;1.00;;;;;;6288114;22;20161;-84
2023/12/24 02:32:52;;;;;;;1.10;0.80;;;10.30;1.00;;;;;;6287672;22;21070;-84
2023/12/24 02:35:19;;;;;;;2.20;1.10;;;10.30;1.00;;;;;;6287793;22;20352;-85
2023/12/24 02:37:44;;;;;;;1.00;0.90;;;10.30;2.40;;;;;;6259917;22;20441;-85
2023/12/24 02:40:10;;;;;;;3.80;1.10;;;10.30;7.90;;;;;;6255075;22;20415;-85
2023/12/24 02:42:35;;;;;;;1.27;0.87;;;10.30;15.40;;;;;;6287395;22;20152;-85
2023/12/24 02:45:01;;;;;;;3.10;0.87;;;10.30;17.20;;;;;;6286250;22;20241;-85
2023/12/24 02:47:26;;;;;;;1.20;0.90;;;10.20;21.50;;;;;;6286602;22;20212;-84
2023/12/24 02:49:52;;;;;;;1.30;0.97;;;10.20;25.00;;;;;;6285496;22;20173;-84
2023/12/24 02:52:17;;;;;;;1.23;1.03;;;10.20;27.20;;;;;;6286034;22;20207;-85
2023/12/24 02:54:44;;;;;;;1.23;0.90;;;10.30;25.70;;;;;;6285724;22;20157;-87
2023/12/24 02:57:09;;;;;;;2.43;1.73;;;10.30;26.20;;;;;;6279835;22;20225;-84
2023/12/24 02:59:35;;;;;;;1.47;1.00;;;10.20;27.30;;;;;;6274639;22;20902;-82
2023/12/24 03:02:00;;;;;;;3.77;1.70;;;10.20;30.30;;;;;;6276615;22;20203;-84
2023/12/24 03:04:26;;;;;;;2.00;1.60;;;10.20;34.10;;;;;;6274935;22;20478;-85
2023/12/24 03:06:52;;;;;;;1.80;1.30;;;10.20;35.10;;;;;;6277207;22;20206;-84
2023/12/24 03:09:17;;;;;;;4.50;1.70;;;10.20;39.40;;;;;;6277093;22;20491;-84
2023/12/24 03:11:43;;;;;;;2.00;1.43;;;10.20;41.00;;;;;;6277478;22;20607;-84
2023/12/24 03:14:08;;;;;;;2.57;1.60;;;10.20;43.40;;;;;;6277037;22;20155;-85
2023/12/24 03:16:34;;;;;;;2.40;1.93;;;10.30;44.20;;;;;;6275927;22;20149;-84
2023/12/24 03:18:59;;;;;;;3.17;1.90;;;10.20;46.00;;;;;;6275548;22;20174;-84
2023/12/24 03:21:25;;;;;;;2.73;1.53;;;10.20;47.30;;;;;;6276262;22;20180;-84
2023/12/24 03:23:51;;;;;;;3.27;1.77;;;10.30;48.10;;;;;;6276825;22;20149;-84
2023/12/24 03:26:20;;;;;;;2.17;1.97;;;10.30;46.30;;;;;;6277660;22;20686;-84
2023/12/24 03:28:48;;;;;;;4.97;2.10;;;10.30;45.80;;;;;;6277087;22;20183;-84
2023/12/24 03:31:14;;;;;;;2.70;2.00;;;10.30;44.10;;;;;;6249710;22;20384;-84
2023/12/24 03:33:39;;;;;;;1.90;1.70;;;10.30;42.50;;;;;;6275775;22;20425;-83
2023/12/24 03:36:07;;;;;;;1.90;1.80;;;10.30;39.70;;;;;;6276057;22;20153;-82
2023/12/24 03:38:33;;;;;;;1.57;1.47;;;10.30;35.20;;;;;;6276164;22;20202;-84
2023/12/24 03:40:58;;;;;;;2.17;1.97;;;10.30;32.30;;;;;;6277111;22;20387;-84
2023/12/24 03:43:24;;;;;;;1.73;1.50;;;10.30;27.60;;;;;;6286378;22;20179;-85
2023/12/24 03:45:49;;;;;;;3.10;1.60;;;10.30;26.10;;;;;;6287206;22;20161;-85
2023/12/24 03:48:15;;;;;;;2.70;1.87;;;10.40;22.10;;;;;;6285831;22;20200;-84
2023/12/24 03:50:40;;;;;;;2.77;1.80;;;10.40;21.00;;;;;;6287808;22;20172;-84
2023/12/24 03:53:07;;;;;;;1.67;1.53;;;10.40;19.10;;;;;;6257164;22;20211;-84
2023/12/24 03:55:32;;;;;;;2.30;2.10;;;10.40;18.90;;;;;;6286063;22;20145;-84
2023/12/24 03:57:58;;;;;;;1.90;1.67;;;10.40;21.90;;;;;;6285260;22;20392;-84
2023/12/24 04:00:24;;;;;;;1.77;1.67;;;10.40;23.40;;;;;;6287675;22;20144;-85
2023/12/24 04:02:49;;;;;;;1.93;1.43;;;10.40;26.10;;;;;;6286223;22;20394;-86
2023/12/24 04:05:15;;;;;;;2.77;1.80;;;10.40;27.20;;;;;;6286809;22;20148;-86
2023/12/24 04:07:41;;;;;;;3.27;2.27;;;10.40;27.20;;;;;;6286246;22;20233;-84
2023/12/24 04:10:07;;;;;;;2.00;1.80;;;10.30;26.70;;;;;;6286939;22;20239;-85
2023/12/24 04:12:32;;;;;;;1.97;1.77;;;10.30;27.20;;;;;;6281415;22;20411;-84
2023/12/24 04:14:58;;;;;;;1.87;1.67;;;10.40;24.20;;;;;;6280199;22;20386;-85
2023/12/24 04:17:23;;;;;;;2.30;2.00;;;10.30;23.40;;;;;;6285836;22;20169;-85
2023/12/24 04:19:49;;;;;;;1.40;1.20;;;10.30;24.20;;;;;;6286987;22;20152;-85
2023/12/24 04:22:14;;;;;;;1.93;1.40;;;10.30;22.80;;;;;;6286449;22;20160;-84
2023/12/24 04:24:40;;;;;;;1.50;1.40;;;10.40;22.50;;;;;;6287377;22;20178;-85
2023/12/24 04:27:05;;;;;;;1.20;1.03;;;10.30;24.10;;;;;;6286776;22;20254;-85
2023/12/24 04:29:31;;;;;;;1.63;0.90;;;10.40;20.50;;;;;;6275520;22;20155;-84
2023/12/24 04:31:56;;;;;;;1.70;1.33;;;10.40;18.40;;;;;;6277393;22;20471;-84
2023/12/24 04:34:22;;;;;;;1.80;1.17;;;10.30;16.50;;;;;;6276868;22;20224;-84
2023/12/24 04:36:51;;;;;;;2.60;1.20;;;10.30;14.80;;;;;;6277854;22;20153;-84
2023/12/24 04:39:17;;;;;;;1.10;0.80;;;10.40;14.00;;;;;;6277419;22;20259;-84
2023/12/24 04:41:42;;;;;;;1.20;1.00;;;10.40;14.00;;;;;;6277131;22;20373;-84
2023/12/24 04:44:08;;;;;;;2.23;0.77;;;10.40;13.60;;;;;;6276505;22;20374;-84
2023/12/24 04:46:40;;;;;;;2.37;1.20;;;10.40;17.90;;;;;;6249178;22;20659;-84
2023/12/24 04:49:05;;;;;;;1.97;1.07;;;10.30;22.80;;;;;;6250105;22;20180;-84
2023/12/24 04:51:31;;;;;;;1.77;1.20;;;10.30;24.30;;;;;;6275701;22;20386;-85
2023/12/24 04:53:56;;;;;;;1.83;0.90;;;10.30;28.60;;;;;;6276939;22;20181;-84
2023/12/24 04:56:23;;;;;;;1.37;1.27;;;10.30;31.90;;;;;;6276749;22;20198;-83
2023/12/24 04:58:48;;;;;;;1.20;0.90;;;10.30;34.70;;;;;;6250361;22;20226;-84
2023/12/24 05:01:15;;;;;;;1.40;1.30;;;10.30;35.90;;;;;;6276865;22;20375;-85
2023/12/24 05:03:41;;;;;;;1.80;1.47;;;10.30;37.20;;;;;;6275131;22;20149;-84
2023/12/24 05:06:07;;;;;;;1.40;1.30;;;10.30;40.70;;;;;;6249391;22;20400;-84
2023/12/24 05:08:32;;;;;;;1.80;1.30;;;10.20;42.60;;;;;;6276298;22;20624;-86
2023/12/24 05:11:04;;;;;;;2.60;1.67;;;10.20;45.60;;;;;;6275900;22;20188;-84
2023/12/24 05:13:29;;;;;;;2.20;1.47;;;10.20;47.20;;;;;;6276278;22;20586;-83
2023/12/24 05:15:55;;;;;;;2.57;1.63;;;10.20;50.70;;;;;;6288335;22;20380;-85
2023/12/24 05:18:20;;;;;;;2.37;1.50;;;10.20;52.80;;;;;;6286815;22;20529;-84
2023/12/24 05:20:46;;;;;;;1.73;1.47;;;10.20;53.00;;;;;;6284997;22;20152;-85
2023/12/24 05:23:11;;;;;;;1.60;1.50;;;10.20;56.30;;;;;;6284969;22;20156;-86
2023/12/24 05:25:37;;;;;;;2.13;1.93;;;10.20;59.80;;;;;;6284547;22;20209;-84
2023/12/24 05:28:03;;;;;;;1.23;1.00;;;10.20;63.50;;;;;;6287294;22;20169;-85
2023/12/24 05:30:28;;;;;;;1.30;1.00;;;10.20;65.50;;;;;;6287225;22;20604;-86
2023/12/24 05:32:53;;;;;;;1.33;1.13;;;10.20;66.60;;;;;;6287328;22;20442;-84
2023/12/24 05:35:19;;;;;;;1.40;1.00;;;10.20;70.90;;;;;;6286788;22;20144;-85
2023/12/24 05:37:46;;;;;;;1.63;1.17;;;10.20;73.70;;;;;;6286837;22;20276;-85
2023/12/24 05:40:12;;;;;;;1.60;1.10;;;10.20;73.80;;;;;;6284254;22;20149;-86
2023/12/24 05:42:37;;;;;;;3.37;1.43;;;10.20;75.80;;;;;;6284075;22;20387;-86
2023/12/24 05:45:03;;;;;;;1.77;1.07;;;10.20;75.10;;;;;;6286027;22;20157;-84
2023/12/24 05:47:29;;;;;;;1.83;1.10;;;10.20;76.30;;;;;;6284872;22;20234;-85
2023/12/24 05:49:54;;;;;;;1.47;1.03;;;10.20;76.00;;;;;;6285939;22;20387;-85
2023/12/24 05:52:20;;;;;;;1.20;0.90;;;10.20;75.70;;;;;;6286476;22;20177;-85
2023/12/24 05:54:45;;;;;;;1.60;1.30;;;10.20;74.60;;;;;;6285290;22;20156;-85
2023/12/24 05:57:11;;;;;;;2.37;1.37;;;10.20;71.30;;;;;;6285800;22;20168;-85
2023/12/24 05:59:37;;;;;;;1.23;1.00;;;10.30;69.60;;;;;;6277565;22;20153;-85
2023/12/24 06:02:03;;;;;;;1.40;0.80;;;10.30;66.70;;;;;;6249162;22;20180;-84
2023/12/24 06:04:28;;;;;;;1.23;0.80;;;10.30;64.50;;;;;;6275727;22;20372;-84
2023/12/24 06:06:54;;;;;;;1.47;1.13;;;10.30;61.60;;;;;;6276769;22;20153;-84
2023/12/24 06:09:19;;;;;;;1.30;0.90;;;10.40;63.20;;;;;;6249462;22;20219;-84
2023/12/24 06:11:45;;;;;;;1.10;0.90;;;10.30;63.70;;;;;;6274768;22;20192;-84
2023/12/24 06:14:10;;;;;;;1.30;0.90;;;10.40;61.30;;;;;;6278039;22;20145;-84
2023/12/24 06:16:36;;;;;;;1.40;1.27;;;10.40;63.80;;;;;;6250584;22;20180;-83
2023/12/24 06:19:01;;;;;;;1.07;0.80;;;10.40;64.00;;;;;;6278406;22;20289;-84
2023/12/24 06:21:27;;;;;;;1.60;0.90;;;10.40;64.30;;;;;;6278247;22;20149;-84
2023/12/24 06:23:52;;;;;;;1.40;1.10;;;10.40;63.20;;;;;;6277497;22;20155;-84
2023/12/24 06:26:18;;;;;;;2.13;1.10;;;10.40;59.70;;;;;;6277791;22;20227;-84
2023/12/24 06:28:43;;;;;;;1.00;0.77;;;10.40;60.20;;;;;;6277096;22;20228;-84
2023/12/24 06:31:09;;;;;;;1.20;0.90;;;10.40;63.10;;;;;;6251712;22;20155;-82
2023/12/24 06:33:35;;;;;;;1.13;0.80;;;10.40;65.30;;;;;;6277927;22;20168;-84
2023/12/24 06:36:00;;;;;;;1.30;0.97;;;10.40;65.70;;;;;;6277097;22;20387;-84
2023/12/24 06:38:26;;;;;;;1.20;1.00;;;10.40;68.40;;;;;;6277481;22;20184;-84
2023/12/24 06:40:51;;;;;;;1.20;0.90;;;10.40;68.80;;;;;;6277742;22;20224;-84
2023/12/24 06:43:17;;;;;;;2.23;0.90;;;10.40;70.00;;;;;;6250706;22;20554;-84
2023/12/24 06:45:43;;;;;;;3.33;1.10;;;10.40;69.80;;;;;;6279952;22;20173;-84
2023/12/24 06:48:10;;;;;;;1.10;0.90;;;10.50;68.80;;;;;;6259447;22;20180;-85
2023/12/24 06:50:35;;;;;;;1.10;0.90;;;10.50;68.20;;;;;;6287135;22;20378;-85
2023/12/24 06:53:01;;;;;;;1.67;0.90;;;10.50;67.40;;;;;;6285988;22;20735;-85
2023/12/24 06:55:27;;;;;;;2.43;1.57;;;10.50;69.50;;;;;;6289119;22;20605;-84
2023/12/24 06:57:52;;;;;;;1.67;1.17;;;10.50;67.20;;;;;;6288428;22;20247;-85
2023/12/24 07:00:18;;;;;;;1.67;1.10;;;10.50;67.90;;;;;;6287655;22;20145;-85
2023/12/24 07:02:44;;;;;;;2.80;0.90;;;10.50;69.20;;;;;;6287676;22;20597;-85
2023/12/24 07:05:09;;;;;;;1.50;1.07;;;10.50;68.80;;;;;;6282319;22;20506;-84
2023/12/24 07:07:35;;;;;;;2.03;1.20;;;10.50;69.50;;;;;;6287629;22;20184;-87
2023/12/24 07:10:00;;;;;;;1.77;1.40;;;10.50;67.10;;;;;;6287882;22;20175;-86
2023/12/24 07:12:28;;;;;;;2.03;1.17;;;10.50;65.70;;;;;;6288158;22;20171;-83
2023/12/24 07:14:54;;;;;;;1.87;1.30;;;10.50;63.40;;;;;;6287826;22;20149;-84
2023/12/24 07:17:22;;;;;;;1.30;1.10;;;10.50;60.20;;;;;;6288451;22;20897;-85
2023/12/24 07:19:47;;;;;;;1.30;1.10;;;10.50;58.50;;;;;;6288621;22;20148;-84
2023/12/24 07:22:16;;;;;;;3.90;1.37;;;10.50;59.60;;;;;;6283617;22;20376;-82
2023/12/24 07:24:41;;;;;;;1.27;1.10;;;10.50;58.70;;;;;;6259811;22;20157;-84
2023/12/24 07:27:07;;;;;;;1.53;1.00;;;10.50;57.30;;;;;;6287902;22;20482;-84
2023/12/24 07:29:32;;;;;;;2.03;1.20;;;10.60;56.60;;;;;;6287815;22;20157;-84
2023/12/24 07:31:58;;;;;;;3.13;1.30;;;10.50;57.90;;;;;;6278539;22;20182;-83
2023/12/24 07:34:24;;;;;;;3.07;1.13;;;10.60;58.20;;;;;;6277580;22;20822;-84
2023/12/24 07:36:49;;;;;;;1.60;1.27;;;10.60;55.70;;;;;;6276819;22;20182;-84
2023/12/24 07:39:15;;;;;;;1.50;1.30;;;10.60;51.20;;;;;;6278187;22;20168;-84
2023/12/24 07:41:42;;;;;;;2.03;1.20;;;10.70;47.90;;;;;;6276868;22;20183;-84
2023/12/24 07:44:09;;;;;;;1.50;1.40;;;10.70;44.40;;;;;;6278475;22;20191;-84
2023/12/24 07:46:35;;;;;;;1.90;1.30;;;10.70;39.40;;;;;;6278968;22;20380;-84
2023/12/24 07:49:01;;;;;;;1.40;1.10;;;10.70;36.20;;;;;;6249197;22;20458;-83
2023/12/24 07:51:28;;;;;;;1.77;1.40;;;10.70;37.90;;;;;;6278749;22;20156;-86
2023/12/24 07:53:53;;;;;;;1.20;1.00;;;10.70;34.30;;;;;;6249940;22;20187;-83
2023/12/24 07:56:19;;;;;;;1.83;1.47;;;10.70;34.40;;;;;;6276297;22;20380;-84
2023/12/24 07:58:44;;;;;;;1.10;0.93;;;10.60;32.60;;;;;;6251584;22;20251;-84
2023/12/24 08:01:10;;;;;;;1.50;1.20;;;10.70;32.80;;;;;;6277153;22;20608;-84
2023/12/24 08:03:35;;;;;;;1.20;1.00;;;10.70;30.20;;;;;;6278271;22;20270;-84
2023/12/24 08:06:01;;;;;;;3.17;1.10;;;10.70;29.10;;;;;;6278260;22;20156;-84
2023/12/24 08:08:27;;;;;;;2.87;1.50;;;10.70;28.00;;;;;;6278888;22;20255;-84
2023/12/24 08:10:53;;;;;;;1.10;0.90;;;10.70;25.70;;;;;;6278054;22;20383;-84
2023/12/24 08:13:18;;;;;;;1.10;0.80;;;10.70;23.30;;;;;;6278054;22;20579;-83
2023/12/24 08:15:44;;;;;;;1.77;0.80;;;10.70;19.10;;;;;;6275140;22;20627;-83
2023/12/24 08:18:09;;;;;;;1.50;0.90;;;10.80;14.70;;;;;;6281914;22;20189;-84
2023/12/24 08:20:35;;;;;;;1.13;0.73;;;10.80;9.40;;;;;;6286336;22;20167;-84
2023/12/24 08:23:00;;;;;;;1.47;0.77;;;10.80;10.40;;;;;;6284922;22;20228;-85
2023/12/24 08:25:27;;;;;;;1.73;0.70;;;10.80;8.90;;;;;;6286242;22;20153;-83
2023/12/24 08:27:52;;;;;;;1.10;0.70;;;10.80;11.50;;;;;;6259389;22;20187;-85
2023/12/24 08:30:18;;;;;;;1.70;0.87;;;10.80;12.80;;;;;;6285525;22;20383;-85
2023/12/24 08:32:43;;;;;;;1.17;0.77;;;10.80;15.30;;;;;;6282321;22;20169;-85
2023/12/24 08:35:11;;;;;;;1.07;0.80;;;10.80;15.70;;;;;;6286424;22;20149;-85
2023/12/24 08:37:36;;;;;;;1.93;0.80;;;10.80;12.70;;;;;;6284346;22;20194;-83
2023/12/24 08:40:03;;;;;;;1.50;0.90;;;10.80;10.40;;;;;;6284624;22;20997;-83
2023/12/24 08:42:28;;;;;;;1.20;0.70;;;10.80;13.10;;;;;;6285746;22;20600;-87
2023/12/24 08:44:54;;;;;;;1.00;0.70;;;10.90;11.30;;;;;;6284418;22;20390;-85
2023/12/24 08:47:19;;;;;;;1.10;0.80;;;10.90;9.20;;;;;;6256874;22;20181;-84
2023/12/24 08:49:45;;;;;;;1.30;0.90;;;10.90;8.20;;;;;;6282547;22;20176;-83
2023/12/24 08:52:10;;;;;;;1.20;0.80;;;10.90;6.20;;;;;;6283837;22;20194;-85
2023/12/24 08:54:36;;;;;;;1.50;0.87;;;11.00;6.70;;;;;;6282932;22;20152;-85
2023/12/24 08:57:01;;;;;;;1.67;0.70;;;11.00;6.00;;;;;;6284288;22;20619;-84
2023/12/24 08:59:27;;;;;;;1.10;0.90;;;11.10;2.30;;;;;;6285223;22;20152;-85
2023/12/24 09:01:53;;;;;;;1.27;0.70;;;11.10;1.00;;;;;;6286711;22;20176;-85
2023/12/24 09:04:19;;;;;;;2.43;0.80;;;11.20;1.00;;;;;;6283554;22;20149;-82
2023/12/24 09:06:44;;;;;;;1.90;0.77;;;11.20;1.00;;;;;;6276164;22;20378;-82
2023/12/24 09:09:12;;;;;;;1.50;1.10;;;11.20;1.00;;;;;;6276175;22;20165;-84
2023/12/24 09:11:38;;;;;;;1.80;0.70;;;11.20;1.00;;;;;;6276300;22;20153;-86
2023/12/24 09:14:03;;;;;;;1.00;0.70;;;11.20;1.00;;;;;;6279577;22;20442;-84
2023/12/24 09:16:28;;;;;;;0.90;0.60;;;11.20;1.00;;;;;;6282313;22;20145;-84
2023/12/24 09:18:54;;;;;;;1.07;0.70;;;11.20;1.00;;;;;;6279750;22;20220;-83
2023/12/24 09:21:20;;;;;;;1.00;0.70;;;11.30;1.00;;;;;;6285186;22;20593;-85
2023/12/24 09:23:45;;;;;;;1.33;0.90;;;11.30;1.00;;;;;;6282820;22;20149;-84
2023/12/24 09:26:10;;;;;;;1.13;0.90;;;11.30;1.00;;;;;;6284923;22;20156;-85
2023/12/24 09:28:36;;;;;;;1.50;1.37;;;11.30;1.00;;;;;;6283847;22;20267;-83
2023/12/24 09:31:01;;;;;;;1.20;0.90;;;11.40;1.00;;;;;;6258333;22;20623;-86
2023/12/24 09:33:27;;;;;;;1.63;1.00;;;11.40;1.00;;;;;;6283063;22;20259;-84
2023/12/24 09:35:52;;;;;;;1.50;1.00;;;11.40;1.00;;;;;;6286296;22;20175;-83
2023/12/24 09:38:18;;;;;;;1.10;0.93;;;11.50;1.00;;;;;;6285302;22;20176;-85
2023/12/24 09:40:43;;;;;;;1.20;0.80;;;11.40;1.00;;;;;;6286102;22;20532;-85
2023/12/24 09:43:09;;;;;;;1.97;0.80;;;11.40;1.00;;;;;;6286119;22;20157;-85
2023/12/24 09:45:35;;;;;;;1.20;0.90;;;11.40;1.00;;;;;;6290538;22;20593;-84
2023/12/24 09:48:00;;;;;;;1.73;0.90;;;11.40;1.00;;;;;;6288424;22;20168;-84
2023/12/24 09:50:26;;;;;;;1.13;0.90;;;11.40;1.00;;;;;;6286749;22;20278;-85
2023/12/24 09:52:53;;;;;;;1.63;0.90;;;11.40;1.00;;;;;;6286402;22;20232;-84
2023/12/24 09:55:18;;;;;;;1.20;0.97;;;11.50;2.40;;;;;;6287082;22;20558;-85
2023/12/24 09:57:44;;;;;;;1.53;0.90;;;11.50;1.00;;;;;;6287541;22;20427;-85
2023/12/24 10:00:10;;;;;;;1.57;1.07;;;11.50;1.00;;;;;;6282777;22;20200;-83
2023/12/24 10:02:36;;;;;;;4.70;1.03;;;11.50;1.60;;;;;;6280180;22;20153;-83
2023/12/24 10:05:06;;;;;;;2.33;0.90;;;11.50;4.70;;;;;;6279902;22;20382;-84
2023/12/24 10:07:45;;;;;;;1.50;1.00;;;11.50;6.70;;;;;;6278973;22;20437;-83
2023/12/24 10:10:11;;;;;;;1.50;1.00;;;11.50;10.40;;;;;;6282356;22;20458;-83
2023/12/24 10:12:37;;;;;;;2.57;1.40;;;11.40;15.60;;;;;;6281887;22;20528;-83
2023/12/24 10:15:03;;;;;;;1.50;1.17;;;11.40;17.40;;;;;;6278943;22;20387;-84
2023/12/24 10:17:35;;;;;;;8.23;4.87;;;11.40;22.50;;;;;;6278785;22;20176;-83
2023/12/24 10:20:06;;;;;;;1.70;1.33;;;11.40;23.20;;;;;;6280368;22;20412;-83
2023/12/24 10:22:33;;;;;;;2.40;1.40;;;11.50;27.20;;;;;;6280585;22;20359;-84
2023/12/24 10:25:00;;;;;;;4.80;1.70;;;11.50;28.60;;;;;;6279387;22;20391;-83
2023/12/24 10:27:26;;;;;;;2.10;1.40;;;11.50;30.00;;;;;;6279489;22;20470;-84
2023/12/24 10:29:51;;;;;;;4.33;1.50;;;11.40;32.90;;;;;;6279891;22;20730;-83
2023/12/24 10:32:24;;;;;;;2.07;1.73;;;11.40;31.50;;;;;;6278858;22;20215;-84
2023/12/24 10:34:59;;;;;;;3.00;1.60;;;11.40;38.70;;;;;;6281354;22;20206;-85
2023/12/24 10:37:29;;;;;;;2.30;1.50;;;11.40;39.30;;;;;;6279273;22;20389;-84
2023/12/24 10:40:09;;;;;;;1.83;1.63;;;11.40;40.00;;;;;;6280858;22;20387;-85
2023/12/24 10:42:37;;;;;;;3.20;1.67;;;11.50;36.80;;;;;;6304903;22;20398;-84
2023/12/24 10:45:07;;;;;;;1.80;1.43;;;11.50;33.90;;;;;;6282214;22;20378;-84
2023/12/24 10:47:35;;;;;;;2.27;1.27;;;11.50;31.90;;;;;;6281786;22;20352;-84
2023/12/24 10:50:01;;;;;;;2.10;1.70;;;11.50;27.20;;;;;;6281312;22;20402;-83
2023/12/24 10:52:26;;;;;;;1.70;1.60;;;11.50;28.70;;;;;;6279834;22;20894;-84
2023/12/24 10:54:54;;;;;;;2.33;1.63;;;11.50;30.70;;;;;;6281072;22;20144;-84
2023/12/24 10:57:44;;;;;;;2.30;2.10;;;11.50;31.90;;;;;;6278598;22;20160;-84
2023/12/24 11:00:12;;;;;;;2.10;1.60;;;11.50;31.00;;;;;;6280902;22;20411;-84
2023/12/24 11:02:46;;;;;;;3.27;2.53;;;11.50;29.10;;;;;;6254227;22;20383;-85
2023/12/24 11:05:32;;;;;;;2.00;1.80;;;11.50;32.60;;;;;;6254667;22;20379;-85
2023/12/24 11:07:57;;;;;;;2.17;1.97;;;11.50;30.70;;;;;;6280444;22;20388;-84
2023/12/24 11:10:40;;;;;;;2.60;2.23;;;11.60;29.30;;;;;;6278531;22;20395;-84
2023/12/24 11:13:32;;;;;;;2.83;2.07;;;11.50;28.50;;;;;;6251263;22;20188;-85
2023/12/24 11:15:59;;;;;;;3.00;1.93;;;11.60;28.80;;;;;;6280070;22;20450;-86
2023/12/24 11:18:44;;;;;;;2.30;2.10;;;11.60;27.00;;;;;;6254649;22;20376;-85
2023/12/24 11:21:14;;;;;;;3.30;1.90;;;11.60;28.00;;;;;;6280055;22;20392;-84
2023/12/24 11:23:40;;;;;;;2.63;1.97;;;11.60;23.50;;;;;;6280351;22;20363;-85
2023/12/24 11:26:31;;;;;;;3.37;2.30;;;11.60;22.60;;;;;;6278964;22;20375;-85
2023/12/24 11:29:01;;;;;;;3.03;2.00;;;11.60;22.10;;;;;;6280539;22;20374;-85
2023/12/24 11:31:27;;;;;;;3.97;2.50;;;11.70;22.40;;;;;;6279464;22;20400;-85
2023/12/24 11:33:56;;;;;;;2.00;1.80;;;11.70;22.80;;;;;;6279519;22;20496;-84
2023/12/24 11:36:24;;;;;;;4.13;2.60;;;11.70;20.00;;;;;;6252111;22;20428;-85
2023/12/24 11:38:58;;;;;;;3.20;2.00;;;11.80;17.90;;;;;;6279580;22;20372;-84
2023/12/24 11:41:25;;;;;;;4.93;2.50;;;11.80;13.20;;;;;;6279374;22;20391;-84
2023/12/24 11:43:52;;;;;;;2.40;1.90;;;11.80;11.90;;;;;;6279689;22;20384;-83
2023/12/24 11:46:18;;;;;;;3.47;1.87;;;11.90;10.10;;;;;;6280121;22;20515;-84
2023/12/24 11:48:44;;;;;;;3.50;1.80;;;11.90;6.00;;;;;;6279254;22;20387;-84
2023/12/24 11:51:11;;;;;;;2.00;1.80;;;11.90;3.70;;;;;;6281519;22;20219;-85
2023/12/24 11:53:38;;;;;;;2.53;1.70;;;12.00;1.00;;;;;;6279490;22;20423;-85
2023/12/24 11:56:13;;;;;;;2.07;1.27;;;12.00;1.00;;;;;;6278367;22;20446;-85
2023/12/24 11:59:04;;;;;;;3.03;1.53;;;12.10;1.00;;;;;;6251069;22;20383;-85
2023/12/24 12:01:31;;;;;;;1.70;1.60;;;12.10;1.00;;;;;;6274515;22;20970;-84
2023/12/24 12:03:59;;;;;;;2.60;1.80;;;12.10;1.00;;;;;;6278524;22;20553;-84
2023/12/24 12:06:26;;;;;;;1.90;1.70;;;12.00;1.00;;;;;;6277689;22;20380;-84
2023/12/24 12:08:52;;;;;;;2.80;1.90;;;12.00;4.70;;;;;;6277825;22;20401;-85
2023/12/24 12:11:18;;;;;;;2.20;2.00;;;12.00;19.20;;;;;;6277792;22;20404;-85
2023/12/24 12:13:44;;;;;;;1.93;1.77;;;12.00;25.50;;;;;;6276905;22;20416;-84
2023/12/24 12:16:10;;;;;;;2.67;2.03;;;11.90;29.70;;;;;;6276602;22;20712;-85
2023/12/24 12:18:36;;;;;;;2.67;1.93;;;11.90;31.60;;;;;;6276367;22;20714;-85
2023/12/24 12:21:01;;;;;;;2.03;1.83;;;11.90;36.10;;;;;;6277164;22;20165;-84
2023/12/24 12:23:26;;;;;;;4.53;1.83;;;11.90;41.00;;;;;;6276662;22;20153;-84
2023/12/24 12:25:52;;;;;;;6.33;4.57;;;11.90;46.20;;;;;;6276412;22;20157;-84
2023/12/24 12:28:18;;;;;;;2.20;2.00;;;11.80;51.10;;;;;;6275489;22;20148;-86
2023/12/24 12:30:45;;;;;;;2.47;2.27;;;11.80;53.20;;;;;;6273200;22;20199;-86
2023/12/24 12:33:11;;;;;;;4.50;2.07;;;11.80;56.20;;;;;;6275758;22;20235;-85
2023/12/24 12:35:37;;;;;;;3.10;1.93;;;11.70;56.50;;;;;;6276968;22;20403;-86
2023/12/24 12:38:03;;;;;;;1.83;1.63;;;11.70;59.80;;;;;;6277758;22;20441;-85
2023/12/24 12:40:29;;;;;;;3.23;1.47;;;11.70;62.20;;;;;;6275754;22;20395;-84
2023/12/24 12:42:55;;;;;;;2.10;1.70;;;11.80;64.40;;;;;;6277883;22;20181;-86
2023/12/24 12:45:21;;;;;;;1.67;1.57;;;11.80;64.90;;;;;;6279223;22;20725;-84
2023/12/24 12:47:46;;;;;;;2.20;1.30;;;11.70;65.40;;;;;;6280531;22;20223;-85